Time;durP1;ratioP1;P1;durP2;ratioP2;P2;SDS_P1;SDS_P2;PMS_P1;PMS_P2;Temp;Humidity;BMP_temperature;BMP_pressure;BME280_temperature;BME280_humidity;BME280_pressure;Samples;Min_cycle;Max_cycle;Signal;HPM_P1;HPM_P2
2022/05/18 00:01:26;;;;;;;3.30;3.00;;;17.50;99.90;;;;;;5122566;22;20992;-44
2022/05/18 00:03:53;;;;;;;5.77;3.37;;;17.50;99.90;;;;;;5071401;28;20499;-45
2022/05/18 00:06:20;;;;;;;3.10;2.80;;;17.50;99.90;;;;;;5071613;28;20472;-45
2022/05/18 00:08:47;;;;;;;4.10;3.40;;;17.50;99.90;;;;;;5071161;28;20925;-44
2022/05/18 00:11:17;;;;;;;4.00;3.60;;;17.50;99.90;;;;;;5070437;28;20508;-47
2022/05/18 00:13:47;;;;;;;3.73;3.30;;;17.50;99.90;;;;;;5071127;28;20952;-45
2022/05/18 00:16:16;;;;;;;3.77;3.43;;;17.60;99.90;;;;;;5071052;28;20436;-45
2022/05/18 00:18:45;;;;;;;3.70;3.30;;;17.50;99.90;;;;;;5070801;28;20809;-44
2022/05/18 00:21:12;;;;;;;4.60;3.97;;;17.50;99.90;;;;;;5070934;28;20465;-47
2022/05/18 00:23:39;;;;;;;3.50;3.20;;;17.50;99.90;;;;;;5071035;28;20436;-44
2022/05/18 00:26:07;;;;;;;5.10;3.47;;;17.50;99.90;;;;;;5071247;28;20873;-49
2022/05/18 00:28:35;;;;;;;4.53;3.33;;;17.40;99.90;;;;;;5070861;28;20487;-44
2022/05/18 00:31:03;;;;;;;3.83;3.40;;;17.30;99.90;;;;;;5070791;28;20468;-44
2022/05/18 00:33:31;;;;;;;6.53;4.20;;;17.30;99.90;;;;;;5071151;28;20440;-44
2022/05/18 00:35:58;;;;;;;4.43;4.03;;;17.20;99.90;;;;;;5075168;28;20486;-44
2022/05/18 00:38:25;;;;;;;5.40;4.33;;;17.10;99.90;;;;;;5074532;28;20858;-44
2022/05/18 00:40:53;;;;;;;4.93;4.43;;;17.10;99.90;;;;;;5074865;28;20952;-44
2022/05/18 00:43:37;;;;;;;4.57;4.17;;;16.90;99.90;;;;;;5075306;28;20516;-43
2022/05/18 00:46:08;;;;;;;4.20;3.80;;;17.00;99.90;;;;;;5074712;28;20436;-44
2022/05/18 00:48:37;;;;;;;8.40;4.33;;;16.90;99.90;;;;;;5074448;28;20999;-46
2022/05/18 00:51:07;;;;;;;5.43;4.20;;;17.00;99.90;;;;;;5074270;28;20475;-46
2022/05/18 00:53:40;;;;;;;3.70;2.90;;;17.00;99.90;;;;;;5074594;28;20476;-43
2022/05/18 00:56:13;;;;;;;4.57;3.47;;;17.00;99.90;;;;;;5074743;28;20436;-44
2022/05/18 00:58:46;;;;;;;9.10;3.63;;;17.00;99.90;;;;;;5074531;28;20618;-45
2022/05/18 01:01:15;;;;;;;3.60;3.30;;;17.00;99.90;;;;;;5074380;28;20521;-47
2022/05/18 01:03:46;;;;;;;5.77;4.27;;;16.90;99.90;;;;;;5074301;28;20467;-45
2022/05/18 01:06:20;;;;;;;4.93;3.63;;;16.90;99.90;;;;;;5074186;28;20497;-45
2022/05/18 01:08:52;;;;;;;3.63;3.23;;;16.80;99.90;;;;;;5074167;28;20446;-45
2022/05/18 01:11:19;;;;;;;3.93;3.53;;;16.90;99.90;;;;;;5074017;28;20461;-44
2022/05/18 01:13:46;;;;;;;4.50;3.60;;;16.90;99.90;;;;;;5074213;28;20432;-44
2022/05/18 01:16:15;;;;;;;3.60;3.20;;;16.90;99.90;;;;;;5073969;28;20834;-47
2022/05/18 01:18:43;;;;;;;4.30;3.00;;;16.80;99.90;;;;;;5073904;28;20523;-45
2022/05/18 01:21:10;;;;;;;4.50;3.70;;;16.80;99.90;;;;;;5073782;28;20492;-45
2022/05/18 01:23:53;;;;;;;3.70;3.40;;;16.60;99.90;;;;;;5074168;28;20526;-44
2022/05/18 01:26:46;;;;;;;4.80;3.67;;;16.60;99.90;;;;;;5073899;28;20476;-47
2022/05/18 01:29:17;;;;;;;4.10;3.23;;;16.60;99.90;;;;;;5062924;28;20476;-44
2022/05/18 01:31:48;;;;;;;3.33;3.03;;;16.60;99.90;;;;;;5073892;28;20483;-47
2022/05/18 01:34:18;;;;;;;3.43;3.13;;;16.60;99.90;;;;;;5073966;28;20479;-44
2022/05/18 01:36:45;;;;;;;3.70;3.40;;;16.60;99.90;;;;;;5073862;28;20471;-47
2022/05/18 01:39:16;;;;;;;3.30;3.00;;;16.60;99.90;;;;;;5073581;28;20535;-44
2022/05/18 01:41:51;;;;;;;3.90;3.60;;;16.60;99.90;;;;;;5073989;28;20540;-44
2022/05/18 01:44:20;;;;;;;3.67;3.37;;;16.60;99.90;;;;;;5073885;28;20540;-44
2022/05/18 01:46:48;;;;;;;4.27;3.43;;;16.50;99.90;;;;;;5072684;28;20479;-44
2022/05/18 01:49:16;;;;;;;4.13;3.80;;;16.40;99.90;;;;;;5073478;28;20440;-44
2022/05/18 01:51:45;;;;;;;3.83;3.47;;;16.30;99.90;;;;;;5073592;28;20491;-44
2022/05/18 01:54:12;;;;;;;4.43;3.60;;;16.30;99.90;;;;;;5073496;28;20498;-46
2022/05/18 01:56:39;;;;;;;6.13;3.77;;;16.20;99.90;;;;;;5073284;28;20812;-44
2022/05/18 01:59:07;;;;;;;4.60;3.33;;;16.10;99.90;;;;;;5073309;28;20505;-46
2022/05/18 02:01:35;;;;;;;3.40;3.10;;;16.20;99.90;;;;;;5073246;28;20559;-44
2022/05/18 02:04:02;;;;;;;3.57;3.27;;;16.20;99.90;;;;;;5073317;28;20566;-46
2022/05/18 02:06:30;;;;;;;3.73;3.30;;;16.20;99.90;;;;;;5073237;28;20468;-44
2022/05/18 02:08:58;;;;;;;5.83;2.83;;;16.10;99.90;;;;;;5072822;28;20437;-46
2022/05/18 02:11:25;;;;;;;4.53;3.90;;;16.00;99.90;;;;;;5072767;28;20474;-46
2022/05/18 02:13:52;;;;;;;5.30;3.13;;;16.00;99.90;;;;;;5073125;28;20576;-45
2022/05/18 02:16:20;;;;;;;3.87;3.40;;;16.10;99.90;;;;;;5073031;28;20498;-47
2022/05/18 02:18:48;;;;;;;4.80;3.23;;;16.10;99.90;;;;;;5072492;28;20486;-44
2022/05/18 02:21:15;;;;;;;3.30;3.00;;;16.00;99.90;;;;;;5072921;28;20499;-46
2022/05/18 02:23:43;;;;;;;4.73;3.30;;;16.10;99.90;;;;;;5072865;28;20468;-45
2022/05/18 02:26:13;;;;;;;6.50;3.97;;;15.90;99.90;;;;;;5072737;28;20527;-44
2022/05/18 02:28:40;;;;;;;3.47;3.17;;;16.00;99.90;;;;;;5072454;28;20527;-47
2022/05/18 02:31:08;;;;;;;8.53;3.47;;;15.90;99.90;;;;;;5072905;28;20460;-44
2022/05/18 02:33:34;;;;;;;3.80;3.40;;;15.80;99.90;;;;;;5072763;28;20593;-46
2022/05/18 02:36:03;;;;;;;5.60;3.97;;;15.80;99.90;;;;;;5072372;28;20440;-44
2022/05/18 02:38:30;;;;;;;4.90;3.60;;;15.80;99.90;;;;;;5072618;28;20527;-43
2022/05/18 02:40:58;;;;;;;3.83;3.40;;;15.80;99.90;;;;;;5072330;28;21188;-44
2022/05/18 02:43:25;;;;;;;4.90;3.90;;;15.70;99.90;;;;;;5072294;28;20803;-44
2022/05/18 02:46:02;;;;;;;3.80;3.40;;;15.70;99.90;;;;;;5072467;28;20436;-44
2022/05/18 02:48:29;;;;;;;4.10;3.70;;;15.70;99.90;;;;;;5072692;28;20456;-44
2022/05/18 02:50:55;;;;;;;3.87;3.47;;;15.70;99.90;;;;;;5072358;28;20914;-44
2022/05/18 02:53:24;;;;;;;6.40;3.60;;;15.50;99.90;;;;;;5072111;28;20559;-43
2022/05/18 02:56:08;;;;;;;3.70;3.40;;;15.40;99.90;;;;;;5071966;28;20468;-44
2022/05/18 02:58:37;;;;;;;3.93;3.50;;;15.30;99.90;;;;;;5072218;28;20436;-44
2022/05/18 03:01:06;;;;;;;3.57;3.27;;;15.40;99.90;;;;;;5071974;28;20477;-45
2022/05/18 03:03:33;;;;;;;4.73;2.80;;;15.40;99.90;;;;;;5072076;28;20468;-44
2022/05/18 03:06:00;;;;;;;5.23;3.97;;;15.50;99.90;;;;;;5072040;28;20494;-45
2022/05/18 03:08:29;;;;;;;4.20;3.80;;;15.60;99.90;;;;;;5071912;28;20436;-44
2022/05/18 03:10:55;;;;;;;3.20;2.90;;;15.60;99.90;;;;;;5071461;28;20488;-44
2022/05/18 03:13:22;;;;;;;4.07;3.33;;;15.50;99.90;;;;;;5072096;28;20488;-47
2022/05/18 03:15:49;;;;;;;3.83;3.53;;;15.50;99.90;;;;;;5071988;28;20513;-44
2022/05/18 03:18:17;;;;;;;6.00;4.20;;;15.40;99.90;;;;;;5071769;28;20481;-44
2022/05/18 03:23:36;;;;;;;3.90;3.50;;;15.60;99.90;;;;;;5071855;28;20435;-44
2022/05/18 03:26:05;;;;;;;3.40;3.10;;;15.60;99.90;;;;;;5071811;28;20959;-47
2022/05/18 03:28:32;;;;;;;3.67;3.03;;;15.50;99.90;;;;;;5071524;28;20863;-44
2022/05/18 03:30:59;;;;;;;11.83;4.90;;;15.60;99.90;;;;;;5071261;28;20500;-44
2022/05/18 03:33:26;;;;;;;4.53;4.13;;;15.60;99.90;;;;;;5071654;28;20512;-46
2022/05/18 03:35:53;;;;;;;5.47;4.13;;;15.50;99.90;;;;;;5071477;28;20487;-43
2022/05/18 03:38:21;;;;;;;4.10;3.77;;;15.50;99.90;;;;;;5071586;28;20463;-45
2022/05/18 03:40:50;;;;;;;3.90;3.60;;;15.50;99.90;;;;;;5071444;28;20511;-43
2022/05/18 03:43:17;;;;;;;3.47;3.17;;;15.50;99.90;;;;;;5071396;28;20433;-45
2022/05/18 03:45:44;;;;;;;6.00;4.70;;;15.40;99.90;;;;;;5071425;28;20468;-43
2022/05/18 03:48:12;;;;;;;5.20;4.07;;;15.40;99.90;;;;;;5071544;28;20468;-45
2022/05/18 03:50:39;;;;;;;3.73;3.30;;;15.40;99.90;;;;;;5070884;28;20972;-47
2022/05/18 03:53:07;;;;;;;3.37;3.07;;;15.40;99.90;;;;;;5071189;28;20508;-43
2022/05/18 03:55:35;;;;;;;3.73;3.10;;;15.30;99.90;;;;;;5071207;28;20440;-45
2022/05/18 03:58:03;;;;;;;4.30;3.90;;;15.30;99.90;;;;;;5071758;28;20933;-44
2022/05/18 04:00:32;;;;;;;3.90;3.33;;;15.10;99.90;;;;;;5070930;28;20909;-44
2022/05/18 04:02:59;;;;;;;5.70;3.70;;;15.00;99.90;;;;;;5071285;28;20838;-44
2022/05/18 04:05:26;;;;;;;5.53;3.27;;;15.00;99.90;;;;;;5071261;28;20464;-46
2022/05/18 04:07:53;;;;;;;4.60;3.57;;;15.00;99.90;;;;;;5071192;28;20458;-44
2022/05/18 04:10:20;;;;;;;4.37;3.97;;;15.00;99.90;;;;;;5069971;28;20944;-45
2022/05/18 04:12:47;;;;;;;4.87;3.80;;;15.10;99.90;;;;;;5071073;28;20995;-44
2022/05/18 04:15:17;;;;;;;4.30;3.90;;;15.10;99.90;;;;;;5071152;28;20436;-46
2022/05/18 04:17:45;;;;;;;3.73;3.30;;;15.20;99.90;;;;;;5071318;28;20432;-44
2022/05/18 04:20:13;;;;;;;4.97;4.00;;;15.10;99.90;;;;;;5071097;28;20467;-44
2022/05/18 04:22:40;;;;;;;5.67;4.17;;;15.20;99.90;;;;;;5070915;28;20952;-44
2022/05/18 04:25:09;;;;;;;5.43;3.77;;;15.30;99.90;;;;;;5071141;28;20436;-47
2022/05/18 04:27:36;;;;;;;6.97;3.97;;;15.20;99.90;;;;;;5070927;28;20440;-45
2022/05/18 04:30:03;;;;;;;4.27;3.80;;;15.10;99.90;;;;;;5070821;28;20468;-44
2022/05/18 04:32:32;;;;;;;3.53;3.23;;;15.20;99.90;;;;;;5070804;28;20479;-44
2022/05/18 04:34:58;;;;;;;4.90;4.40;;;15.10;99.90;;;;;;5070649;28;20470;-44
2022/05/18 04:37:26;;;;;;;3.80;3.40;;;15.10;99.90;;;;;;5071198;28;20464;-43
2022/05/18 04:39:52;;;;;;;4.73;3.70;;;15.20;99.90;;;;;;5070803;28;20433;-43
2022/05/18 04:42:22;;;;;;;4.77;4.30;;;15.00;99.90;;;;;;5071022;28;20444;-44
2022/05/18 04:44:50;;;;;;;5.23;4.70;;;15.00;99.90;;;;;;5071035;28;20859;-44
2022/05/18 04:47:17;;;;;;;4.40;3.87;;;14.80;99.90;;;;;;5070833;28;20826;-44
2022/05/18 04:49:45;;;;;;;4.93;4.50;;;14.80;99.90;;;;;;5070526;28;20720;-44
2022/05/18 04:52:12;;;;;;;4.00;3.70;;;14.80;99.90;;;;;;5071073;28;20448;-43
2022/05/18 04:54:39;;;;;;;4.37;3.90;;;14.60;99.90;;;;;;5070759;28;20569;-44
2022/05/18 04:57:06;;;;;;;3.40;3.10;;;14.60;99.90;;;;;;5070707;28;20472;-44
2022/05/18 04:59:33;;;;;;;4.43;4.03;;;14.70;99.90;;;;;;5070394;28;20440;-44
2022/05/18 05:02:00;;;;;;;3.63;3.33;;;14.90;99.90;;;;;;5070630;28;20533;-44
2022/05/18 05:04:27;;;;;;;3.50;3.13;;;15.00;99.90;;;;;;5071044;28;20482;-44
2022/05/18 05:06:55;;;;;;;4.17;3.60;;;15.10;99.90;;;;;;5070683;28;20964;-44
2022/05/18 05:09:24;;;;;;;4.77;4.37;;;15.10;99.90;;;;;;5070525;28;20445;-44
2022/05/18 05:11:51;;;;;;;4.20;3.90;;;15.10;99.90;;;;;;5070020;28;20518;-44
2022/05/18 05:14:18;;;;;;;3.80;3.50;;;15.10;99.90;;;;;;5070930;28;20567;-47
2022/05/18 05:16:45;;;;;;;4.73;4.13;;;15.20;99.90;;;;;;5070814;28;20472;-44
2022/05/18 05:19:12;;;;;;;4.03;3.70;;;15.30;99.90;;;;;;5070502;28;21106;-43
2022/05/18 05:21:42;;;;;;;4.17;3.77;;;15.30;99.90;;;;;;5072495;28;20876;-44
2022/05/18 05:24:11;;;;;;;4.60;3.90;;;15.30;99.90;;;;;;5074212;28;20454;-46
2022/05/18 05:26:38;;;;;;;5.47;4.50;;;15.30;99.90;;;;;;5074030;28;20487;-44
2022/05/18 05:29:06;;;;;;;3.73;3.43;;;15.40;99.90;;;;;;5073783;28;20528;-44
2022/05/18 05:31:33;;;;;;;6.10;3.77;;;15.40;99.90;;;;;;5074068;28;20460;-47
2022/05/18 05:34:00;;;;;;;4.90;4.03;;;15.30;99.90;;;;;;5073815;28;20567;-44
2022/05/18 05:36:28;;;;;;;3.80;3.50;;;15.30;99.90;;;;;;5074120;28;20476;-44
2022/05/18 05:38:55;;;;;;;5.87;4.03;;;15.30;99.90;;;;;;5073703;28;20933;-44
2022/05/18 05:41:23;;;;;;;4.03;3.63;;;15.30;99.90;;;;;;5073735;28;21042;-45
2022/05/18 05:43:51;;;;;;;3.37;3.07;;;15.30;99.90;;;;;;5073818;28;20531;-44
2022/05/18 05:46:18;;;;;;;4.70;3.90;;;15.30;99.90;;;;;;5073712;28;20444;-43
2022/05/18 05:48:46;;;;;;;3.83;3.47;;;15.40;99.90;;;;;;5073502;28;20445;-44
2022/05/18 05:51:15;;;;;;;4.27;3.87;;;15.40;99.90;;;;;;5073454;28;20460;-43
2022/05/18 05:53:44;;;;;;;4.63;4.20;;;15.50;99.90;;;;;;5073252;28;20992;-47
2022/05/18 05:56:12;;;;;;;4.20;3.80;;;15.50;99.90;;;;;;5073575;28;20851;-45
2022/05/18 05:58:43;;;;;;;4.80;3.77;;;15.50;99.90;;;;;;5073239;28;20920;-45
2022/05/18 06:01:13;;;;;;;5.93;3.43;;;15.40;99.90;;;;;;5124845;22;20469;-45
2022/05/18 06:03:41;;;;;;;3.70;3.40;;;15.40;99.90;;;;;;5053396;28;20480;-47
2022/05/18 06:06:10;;;;;;;7.83;3.93;;;15.40;99.90;;;;;;5053507;28;20815;-45
2022/05/18 06:08:38;;;;;;;4.03;3.70;;;15.80;99.90;;;;;;5053155;28;20449;-45
2022/05/18 06:11:06;;;;;;;6.83;4.30;;;16.60;99.90;;;;;;5052879;28;20957;-42
2022/05/18 06:13:34;;;;;;;3.80;3.50;;;17.30;99.90;;;;;;5053006;28;21074;-42
2022/05/18 06:16:03;;;;;;;4.27;3.90;;;17.80;99.90;;;;;;5052973;28;20452;-43
2022/05/18 06:18:30;;;;;;;3.60;3.30;;;18.00;99.90;;;;;;5052920;28;20452;-47
2022/05/18 06:20:59;;;;;;;4.20;3.70;;;18.10;99.90;;;;;;5052962;28;20476;-42
2022/05/18 06:23:26;;;;;;;4.33;3.50;;;18.00;99.90;;;;;;5053077;28;20444;-47
2022/05/18 06:25:58;;;;;;;6.20;3.90;;;17.90;99.90;;;;;;5052892;28;20477;-42
2022/05/18 06:28:25;;;;;;;4.93;4.27;;;17.90;99.90;;;;;;5053039;28;20524;-42
2022/05/18 06:30:52;;;;;;;5.60;4.20;;;17.90;99.90;;;;;;5052562;28;20977;-43
2022/05/18 06:33:21;;;;;;;5.23;4.70;;;17.90;99.90;;;;;;5052506;28;20477;-45
2022/05/18 06:35:51;;;;;;;5.50;5.00;;;18.00;99.90;;;;;;5052539;28;20441;-42
2022/05/18 06:38:18;;;;;;;5.57;5.07;;;18.00;99.90;;;;;;5052790;28;20816;-42
2022/05/18 06:43:30;;;;;;;5.63;4.50;;;18.00;99.90;;;;;;5052655;28;20527;-42
2022/05/18 06:45:57;;;;;;;5.20;4.50;;;18.00;99.90;;;;;;5052488;28;20449;-42
2022/05/18 06:48:25;;;;;;;6.10;4.80;;;18.00;99.90;;;;;;5052850;28;20468;-44
2022/05/18 06:50:52;;;;;;;5.37;4.17;;;18.00;99.90;;;;;;5052393;28;20508;-43
2022/05/18 06:53:19;;;;;;;4.07;3.60;;;18.00;99.90;;;;;;5052394;28;20476;-42
2022/05/18 06:55:47;;;;;;;4.10;3.70;;;18.00;99.90;;;;;;5052216;28;20441;-47
2022/05/18 06:58:14;;;;;;;4.43;3.23;;;18.00;99.90;;;;;;5052360;28;20445;-45
2022/05/18 07:00:42;;;;;;;3.97;3.67;;;18.10;99.90;;;;;;5052140;28;20523;-42
2022/05/18 07:03:08;;;;;;;4.53;4.07;;;18.20;99.90;;;;;;5052375;28;20456;-46
2022/05/18 07:05:38;;;;;;;3.97;3.57;;;18.10;99.90;;;;;;5052250;28;20499;-43
2022/05/18 07:08:05;;;;;;;3.40;3.10;;;18.10;99.90;;;;;;5051886;28;20447;-43
2022/05/18 07:10:32;;;;;;;4.37;3.97;;;18.20;99.90;;;;;;5051466;28;20477;-44
2022/05/18 07:12:59;;;;;;;4.30;3.80;;;18.20;99.90;;;;;;5052026;28;20968;-45
2022/05/18 07:15:26;;;;;;;3.50;3.20;;;18.10;99.90;;;;;;5051840;28;21068;-43
2022/05/18 07:17:53;;;;;;;3.57;3.27;;;18.00;99.90;;;;;;5052491;28;20477;-42
2022/05/18 07:20:20;;;;;;;4.63;4.10;;;18.00;99.90;;;;;;5051598;28;20484;-43
2022/05/18 07:22:48;;;;;;;4.20;3.80;;;18.10;99.90;;;;;;5051921;28;20495;-45
2022/05/18 07:25:15;;;;;;;3.70;3.40;;;18.10;99.90;;;;;;5051802;28;20469;-42
2022/05/18 07:27:42;;;;;;;4.10;3.50;;;18.20;99.90;;;;;;5051471;28;20467;-45
2022/05/18 07:30:13;;;;;;;4.30;3.90;;;18.30;99.90;;;;;;5051357;28;20499;-42
2022/05/18 07:32:39;;;;;;;5.43;3.70;;;18.60;99.90;;;;;;5051454;28;20530;-42
2022/05/18 07:35:07;;;;;;;4.70;3.87;;;18.90;99.90;;;;;;5051531;28;20597;-47
2022/05/18 07:37:34;;;;;;;4.37;3.97;;;19.40;99.90;;;;;;5051837;28;20442;-42
2022/05/18 07:40:03;;;;;;;3.97;3.67;;;19.60;99.90;;;;;;5051263;28;20885;-43
2022/05/18 07:42:30;;;;;;;12.73;4.80;;;20.00;99.90;;;;;;5051222;28;21036;-42
2022/05/18 07:44:57;;;;;;;6.93;3.63;;;20.20;99.90;;;;;;5050897;28;20503;-47
2022/05/18 07:47:30;;;;;;;23.33;5.83;;;20.50;99.90;;;;;;5051492;28;20484;-42
2022/05/18 07:49:56;;;;;;;4.10;3.37;;;20.70;99.90;;;;;;5051239;28;20449;-43
2022/05/18 07:52:23;;;;;;;4.73;4.10;;;20.90;99.90;;;;;;5051543;28;20523;-43
2022/05/18 07:54:51;;;;;;;3.87;3.47;;;21.10;99.90;;;;;;5051389;28;20472;-43
2022/05/18 07:57:19;;;;;;;5.30;3.67;;;21.30;99.90;;;;;;5051336;28;20452;-43
2022/05/18 07:59:46;;;;;;;4.53;4.13;;;21.50;99.90;;;;;;5050883;28;20976;-44
2022/05/18 08:02:13;;;;;;;3.27;2.97;;;21.30;99.90;;;;;;5050891;28;20472;-41
2022/05/18 08:04:40;;;;;;;5.77;3.80;;;21.50;99.90;;;;;;5051266;28;20443;-46
2022/05/18 08:07:07;;;;;;;3.60;3.30;;;21.30;99.90;;;;;;5050884;28;20502;-43
2022/05/18 08:15:05;;;;;;;4.47;3.80;;;21.20;99.90;;;;;;5051028;28;20477;-43
2022/05/18 08:15:08;;;;;;;5.40;3.50;;;21.20;99.90;;;;;;5051253;28;20526;-43
2022/05/18 08:17:35;;;;;;;4.07;3.67;;;21.30;99.90;;;;;;5051318;28;20469;-42
2022/05/18 08:20:06;;;;;;;4.87;3.53;;;21.50;99.90;;;;;;5050868;28;20473;-43
2022/05/18 08:22:33;;;;;;;4.27;3.97;;;21.50;99.90;;;;;;5050911;28;20465;-42
2022/05/18 08:25:00;;;;;;;4.43;4.03;;;21.50;99.90;;;;;;5051301;28;20476;-46
2022/05/18 08:27:29;;;;;;;4.50;4.03;;;21.50;99.90;;;;;;5050748;28;21032;-43
2022/05/18 08:30:01;;;;;;;4.10;3.70;;;21.30;99.90;;;;;;5050769;28;20473;-43
2022/05/18 08:32:28;;;;;;;5.40;3.97;;;21.10;99.90;;;;;;5050901;28;20473;-46
2022/05/18 08:34:55;;;;;;;4.53;4.10;;;21.10;99.90;;;;;;5051556;28;20484;-42
2022/05/18 08:37:23;;;;;;;4.10;3.67;;;21.10;99.90;;;;;;5050981;28;20444;-45
2022/05/18 08:39:51;;;;;;;4.80;3.63;;;21.10;99.90;;;;;;5050588;28;20448;-42
2022/05/18 08:42:18;;;;;;;4.30;3.90;;;21.00;99.90;;;;;;5050995;28;20970;-43
2022/05/18 08:44:47;;;;;;;5.80;4.77;;;21.00;99.90;;;;;;5050996;28;20479;-45
2022/05/18 08:47:20;;;;;;;25.27;9.17;;;21.10;99.90;;;;;;5050944;28;20533;-42
2022/05/18 08:49:55;;;;;;;9.60;5.20;;;21.30;99.90;;;;;;5050813;28;20477;-43
2022/05/18 08:52:40;;;;;;;6.00;3.60;;;21.40;99.90;;;;;;5050818;28;20543;-42
2022/05/18 08:55:31;;;;;;;4.13;3.80;;;21.50;99.90;;;;;;5051963;28;20480;-42
2022/05/18 08:58:00;;;;;;;3.70;2.90;;;21.40;99.90;;;;;;5054595;28;20440;-44
2022/05/18 09:00:34;;;;;;;4.10;3.80;;;21.40;99.90;;;;;;5054494;28;20476;-42
2022/05/18 09:03:05;;;;;;;4.33;3.93;;;21.40;99.90;;;;;;5054827;28;20441;-43
2022/05/18 09:05:35;;;;;;;4.10;3.20;;;21.50;99.90;;;;;;5054291;28;20433;-46
2022/05/18 09:08:10;;;;;;;2.83;2.63;;;21.40;99.90;;;;;;5054604;28;20437;-43
2022/05/18 09:10:43;;;;;;;4.00;3.20;;;21.50;99.90;;;;;;5053968;28;21177;-45
2022/05/18 09:13:10;;;;;;;3.97;2.87;;;21.80;99.90;;;;;;5054237;28;20441;-43
2022/05/18 09:15:45;;;;;;;3.83;3.40;;;21.80;99.90;;;;;;5054003;28;20928;-47
2022/05/18 09:18:21;;;;;;;5.27;3.87;;;22.00;99.90;;;;;;5054237;28;20499;-42
2022/05/18 09:20:51;;;;;;;2.40;2.20;;;22.10;99.90;;;;;;5054131;28;20469;-42
2022/05/18 09:23:34;;;;;;;3.30;3.00;;;22.30;99.90;;;;;;5054170;28;20492;-44
2022/05/18 09:26:17;;;;;;;3.83;2.50;;;22.20;99.90;;;;;;5054075;28;20433;-43
2022/05/18 09:28:52;;;;;;;2.40;2.20;;;22.20;99.90;;;;;;5053788;28;20886;-43
2022/05/18 09:31:34;;;;;;;3.00;2.70;;;22.10;99.90;;;;;;5053825;28;20500;-42
2022/05/18 09:34:16;;;;;;;3.13;2.83;;;22.20;99.90;;;;;;5053836;28;20464;-44
2022/05/18 09:37:08;;;;;;;4.33;2.23;;;22.30;99.90;;;;;;5053971;28;20437;-43
2022/05/18 09:39:39;;;;;;;2.60;2.40;;;22.30;99.90;;;;;;5053420;28;20929;-43
2022/05/18 09:42:11;;;;;;;2.17;1.33;;;22.30;99.90;;;;;;5053807;28;20465;-48
2022/05/18 09:44:44;;;;;;;2.43;1.90;;;22.40;98.00;;;;;;5053611;28;20469;-42
2022/05/18 09:47:17;;;;;;;2.13;1.67;;;22.60;98.40;;;;;;5053713;28;20891;-43
2022/05/18 09:49:47;;;;;;;1.53;1.40;;;22.60;98.80;;;;;;5053424;28;20506;-43
2022/05/18 09:52:17;;;;;;;3.10;1.90;;;22.60;93.50;;;;;;5053734;28;20469;-43
2022/05/18 09:54:44;;;;;;;3.60;1.40;;;22.70;96.60;;;;;;5053682;28;20931;-43
2022/05/18 09:57:18;;;;;;;2.33;1.83;;;22.70;94.80;;;;;;5053371;28;20937;-43
2022/05/18 09:59:49;;;;;;;4.20;1.57;;;22.80;95.00;;;;;;5053295;28;20449;-42
2022/05/18 10:07:54;;;;;;;1.97;1.23;;;23.00;95.70;;;;;;5052648;28;20456;-44
2022/05/18 10:10:26;;;;;;;2.07;1.37;;;22.90;90.10;;;;;;5052519;28;20449;-43
2022/05/18 10:13:03;;;;;;;2.00;1.40;;;23.00;92.40;;;;;;5053217;28;20477;-42
2022/05/18 10:15:37;;;;;;;3.60;1.80;;;23.10;94.20;;;;;;5053330;28;20473;-42
2022/05/18 10:18:17;;;;;;;2.03;1.20;;;23.20;93.80;;;;;;5053017;28;20448;-43
2022/05/18 10:20:59;;;;;;;4.77;1.70;;;23.00;91.60;;;;;;5052870;28;20461;-43
2022/05/18 10:23:33;;;;;;;4.67;2.03;;;23.10;91.80;;;;;;5053353;28;20442;-42
2022/05/18 10:26:03;;;;;;;1.73;1.63;;;23.10;92.00;;;;;;5053418;28;20441;-42
2022/05/18 10:28:33;;;;;;;2.50;1.73;;;23.00;92.20;;;;;;5052856;28;20833;-43
2022/05/18 10:31:04;;;;;;;1.80;1.53;;;23.00;95.00;;;;;;5052667;28;20823;-43
2022/05/18 10:33:35;;;;;;;1.93;1.73;;;23.20;91.60;;;;;;5052827;28;20934;-42
2022/05/18 10:36:10;;;;;;;2.53;1.83;;;23.20;94.00;;;;;;5052726;28;20473;-43
2022/05/18 10:38:48;;;;;;;3.63;1.80;;;23.40;94.30;;;;;;5052575;28;20933;-47
2022/05/18 10:41:18;;;;;;;1.80;1.70;;;23.30;91.80;;;;;;5052543;28;20453;-43
2022/05/18 10:43:59;;;;;;;6.23;2.13;;;23.30;92.70;;;;;;5052592;28;20942;-43
2022/05/18 10:46:31;;;;;;;6.97;2.13;;;23.40;91.30;;;;;;5052723;28;20499;-43
2022/05/18 10:49:02;;;;;;;1.60;1.50;;;23.40;92.60;;;;;;5052365;28;20445;-43
2022/05/18 10:51:33;;;;;;;3.30;2.23;;;23.40;91.80;;;;;;5052699;28;20496;-43
2022/05/18 10:54:10;;;;;;;3.37;1.70;;;23.30;92.30;;;;;;5052641;28;20489;-42
2022/05/18 10:56:38;;;;;;;2.53;1.50;;;23.40;94.30;;;;;;5052536;28;20503;-42
2022/05/18 10:59:32;;;;;;;4.03;2.00;;;23.50;93.90;;;;;;5052547;28;21057;-45
2022/05/18 11:02:08;;;;;;;3.33;2.17;;;23.70;92.70;;;;;;5050525;28;20930;-44
2022/05/18 11:04:49;;;;;;;2.73;1.50;;;23.80;92.70;;;;;;5052717;28;20491;-42
2022/05/18 11:07:16;;;;;;;2.03;1.60;;;23.90;91.50;;;;;;5052462;28;20451;-47
2022/05/18 11:09:43;;;;;;;2.00;1.40;;;23.90;90.90;;;;;;5051824;28;20464;-47
2022/05/18 11:12:17;;;;;;;1.70;1.33;;;23.90;92.60;;;;;;5051720;28;20469;-41
2022/05/18 11:14:50;;;;;;;1.77;1.30;;;24.10;91.30;;;;;;5051874;28;20473;-45
2022/05/18 11:17:32;;;;;;;1.97;1.60;;;24.20;91.90;;;;;;5052038;28;20442;-43
2022/05/18 11:20:11;;;;;;;2.63;1.60;;;24.20;90.00;;;;;;5051800;28;20445;-43
2022/05/18 11:22:47;;;;;;;2.10;1.37;;;24.20;90.50;;;;;;5051916;28;20584;-43
2022/05/18 11:25:27;;;;;;;28.07;4.07;;;24.30;89.50;;;;;;5051993;28;20853;-43
2022/05/18 11:28:01;;;;;;;2.27;2.07;;;24.30;90.30;;;;;;5051721;28;20805;-43
2022/05/18 11:30:37;;;;;;;1.80;1.50;;;24.10;88.60;;;;;;5051380;28;20995;-42
2022/05/18 11:33:14;;;;;;;1.70;1.50;;;24.10;93.10;;;;;;5051712;28;20929;-43
2022/05/18 11:35:52;;;;;;;2.10;1.77;;;24.10;89.20;;;;;;5051364;28;20874;-42
2022/05/18 11:38:52;;;;;;;1.50;1.30;;;24.20;90.30;;;;;;5051978;28;20812;-42
2022/05/18 11:41:42;;;;;;;1.30;1.10;;;24.20;90.30;;;;;;5028726;28;20545;-44
2022/05/18 11:44:15;;;;;;;1.73;1.47;;;24.30;87.50;;;;;;5051576;28;20437;-42
2022/05/18 11:47:05;;;;;;;1.50;1.13;;;24.30;86.80;;;;;;5051748;28;20436;-46
2022/05/18 11:49:40;;;;;;;3.47;1.70;;;24.30;89.00;;;;;;5051200;28;20437;-40
2022/05/18 11:52:29;;;;;;;3.60;1.87;;;24.40;85.80;;;;;;5051249;28;20880;-43
2022/05/18 11:55:21;;;;;;;4.03;1.30;;;24.70;91.90;;;;;;5051425;28;20480;-42
2022/05/18 11:57:55;;;;;;;4.13;1.60;;;24.80;87.70;;;;;;5051227;28;20442;-43
2022/05/18 12:00:44;;;;;;;1.57;1.40;;;24.80;90.20;;;;;;5051181;28;20535;-43
2022/05/18 12:03:48;;;;;;;3.53;1.60;;;24.80;86.70;;;;;;5125920;22;20492;-44
2022/05/18 12:06:53;;;;;;;3.43;1.70;;;24.40;83.90;;;;;;5071252;28;20466;-43
2022/05/18 12:09:40;;;;;;;2.30;2.10;;;24.10;81.20;;;;;;5071000;28;20980;-43
2022/05/18 12:12:18;;;;;;;3.27;1.77;;;23.90;89.20;;;;;;5070828;28;20491;-42
2022/05/18 12:14:51;;;;;;;3.73;2.10;;;23.80;84.80;;;;;;5071281;28;20440;-43
2022/05/18 12:17:24;;;;;;;2.23;1.40;;;23.70;86.60;;;;;;5071079;28;20813;-43
2022/05/18 12:19:57;;;;;;;2.17;1.70;;;23.70;83.90;;;;;;5069532;28;20441;-43
2022/05/18 12:22:30;;;;;;;3.77;2.03;;;23.60;84.50;;;;;;5071118;28;20460;-44
2022/05/18 12:24:58;;;;;;;4.50;1.70;;;23.60;88.20;;;;;;5069222;28;20468;-43
2022/05/18 12:27:27;;;;;;;2.87;1.60;;;23.50;88.10;;;;;;5070952;28;20479;-42
2022/05/18 12:29:58;;;;;;;2.27;1.77;;;23.60;83.70;;;;;;5071577;28;20486;-42
2022/05/18 12:32:26;;;;;;;2.20;1.50;;;23.70;90.80;;;;;;5074978;28;20459;-43
2022/05/18 12:35:06;;;;;;;2.80;1.90;;;23.80;86.60;;;;;;5075417;28;20444;-44
2022/05/18 12:37:35;;;;;;;1.73;1.43;;;23.90;84.50;;;;;;5073964;28;20444;-43
2022/05/18 12:40:24;;;;;;;2.17;1.67;;;24.00;90.40;;;;;;5074684;28;20476;-43
2022/05/18 12:42:58;;;;;;;1.93;1.57;;;24.00;87.70;;;;;;5074856;28;20499;-42
2022/05/18 12:45:39;;;;;;;2.53;1.93;;;24.00;84.00;;;;;;5074723;28;20468;-43
2022/05/18 12:48:16;;;;;;;2.53;1.70;;;24.20;91.20;;;;;;5074555;28;20448;-43
2022/05/18 12:51:00;;;;;;;2.77;1.40;;;24.10;80.00;;;;;;5074630;28;20851;-43
2022/05/18 12:53:31;;;;;;;2.10;1.40;;;24.20;86.60;;;;;;5074377;28;20980;-43
2022/05/18 12:56:04;;;;;;;2.33;1.50;;;24.30;85.50;;;;;;5074113;28;20503;-46
2022/05/18 12:58:36;;;;;;;1.87;1.60;;;24.40;84.80;;;;;;5074407;28;20476;-43
2022/05/18 13:01:12;;;;;;;2.30;1.33;;;24.50;85.10;;;;;;5074675;28;20476;-44
2022/05/18 13:03:58;;;;;;;2.00;1.80;;;24.60;83.30;;;;;;5078842;27;20519;-43
2022/05/18 13:06:43;;;;;;;1.70;1.30;;;24.60;85.70;;;;;;5074336;28;20917;-43
2022/05/18 13:09:34;;;;;;;1.90;1.70;;;24.70;86.30;;;;;;5074162;28;20526;-43
2022/05/18 13:12:21;;;;;;;3.10;1.83;;;24.70;82.20;;;;;;5073961;28;20852;-42
2022/05/18 13:14:57;;;;;;;2.50;1.60;;;24.70;81.80;;;;;;5073073;28;20535;-44
2022/05/18 13:17:40;;;;;;;1.70;1.50;;;24.80;80.20;;;;;;5073359;28;20442;-46
2022/05/18 13:20:44;;;;;;;3.07;1.60;;;24.80;79.30;;;;;;5073446;28;20464;-45